sensor_id;sensor_type;location;lat;lon;timestamp;P1;durP1;ratioP1;P2;durP2;ratioP2
20379;SDS011;10349;48.666;8.948;2024-01-30T00:01:15;6.40;;;5.87;;
20379;SDS011;10349;48.666;8.948;2024-01-30T00:03:40;6.30;;;5.63;;
20379;SDS011;10349;48.666;8.948;2024-01-30T00:06:07;5.73;;;5.23;;
20379;SDS011;10349;48.666;8.948;2024-01-30T00:08:33;6.53;;;5.17;;
20379;SDS011;10349;48.666;8.948;2024-01-30T00:10:58;5.90;;;5.23;;
20379;SDS011;10349;48.666;8.948;2024-01-30T00:13:24;9.23;;;5.50;;
20379;SDS011;10349;48.666;8.948;2024-01-30T00:15:50;7.00;;;5.50;;
20379;SDS011;10349;48.666;8.948;2024-01-30T00:18:15;6.70;;;5.47;;
20379;SDS011;10349;48.666;8.948;2024-01-30T00:20:41;4.67;;;4.00;;
20379;SDS011;10349;48.666;8.948;2024-01-30T00:23:07;7.13;;;5.60;;
20379;SDS011;10349;48.666;8.948;2024-01-30T00:25:33;13.33;;;5.83;;
20379;SDS011;10349;48.666;8.948;2024-01-30T00:27:59;6.50;;;5.90;;
20379;SDS011;10349;48.666;8.948;2024-01-30T00:30:25;5.23;;;4.77;;
20379;SDS011;10349;48.666;8.948;2024-01-30T00:32:50;6.33;;;5.53;;
20379;SDS011;10349;48.666;8.948;2024-01-30T00:35:16;7.30;;;6.20;;
20379;SDS011;10349;48.666;8.948;2024-01-30T00:37:42;7.50;;;5.60;;
20379;SDS011;10349;48.666;8.948;2024-01-30T00:40:08;6.80;;;5.50;;
20379;SDS011;10349;48.666;8.948;2024-01-30T00:42:35;6.40;;;5.53;;
20379;SDS011;10349;48.666;8.948;2024-01-30T00:45:01;10.00;;;5.47;;
20379;SDS011;10349;48.666;8.948;2024-01-30T00:47:26;11.00;;;6.30;;
20379;SDS011;10349;48.666;8.948;2024-01-30T00:49:54;5.80;;;5.27;;
20379;SDS011;10349;48.666;8.948;2024-01-30T00:52:19;14.70;;;7.50;;
20379;SDS011;10349;48.666;8.948;2024-01-30T00:54:45;12.50;;;7.90;;
20379;SDS011;10349;48.666;8.948;2024-01-30T00:57:10;11.10;;;6.33;;
20379;SDS011;10349;48.666;8.948;2024-01-30T00:59:36;8.27;;;6.67;;
20379;SDS011;10349;48.666;8.948;2024-01-30T01:02:02;7.37;;;6.60;;
20379;SDS011;10349;48.666;8.948;2024-01-30T01:04:27;7.30;;;5.97;;
20379;SDS011;10349;48.666;8.948;2024-01-30T01:06:53;7.93;;;6.40;;
20379;SDS011;10349;48.666;8.948;2024-01-30T01:09:18;11.27;;;6.17;;
20379;SDS011;10349;48.666;8.948;2024-01-30T01:11:44;12.30;;;6.60;;
20379;SDS011;10349;48.666;8.948;2024-01-30T01:14:09;7.77;;;7.00;;
20379;SDS011;10349;48.666;8.948;2024-01-30T01:16:35;7.77;;;6.57;;
20379;SDS011;10349;48.666;8.948;2024-01-30T01:19:01;10.17;;;6.60;;
20379;SDS011;10349;48.666;8.948;2024-01-30T01:21:26;11.50;;;7.00;;
20379;SDS011;10349;48.666;8.948;2024-01-30T01:23:52;8.13;;;6.70;;
20379;SDS011;10349;48.666;8.948;2024-01-30T01:26:17;17.73;;;8.80;;
20379;SDS011;10349;48.666;8.948;2024-01-30T01:28:43;8.67;;;6.50;;
20379;SDS011;10349;48.666;8.948;2024-01-30T01:31:09;10.03;;;6.30;;
20379;SDS011;10349;48.666;8.948;2024-01-30T01:33:34;6.50;;;5.90;;
20379;SDS011;10349;48.666;8.948;2024-01-30T01:36:02;6.97;;;6.07;;
20379;SDS011;10349;48.666;8.948;2024-01-30T01:38:28;7.27;;;6.17;;
20379;SDS011;10349;48.666;8.948;2024-01-30T01:40:53;7.30;;;6.33;;
20379;SDS011;10349;48.666;8.948;2024-01-30T01:43:19;11.50;;;7.13;;
20379;SDS011;10349;48.666;8.948;2024-01-30T01:45:45;9.67;;;6.87;;
20379;SDS011;10349;48.666;8.948;2024-01-30T01:48:11;6.83;;;6.07;;
20379;SDS011;10349;48.666;8.948;2024-01-30T01:50:37;9.30;;;6.63;;
20379;SDS011;10349;48.666;8.948;2024-01-30T01:53:05;9.83;;;6.17;;
20379;SDS011;10349;48.666;8.948;2024-01-30T01:55:33;6.37;;;5.70;;
20379;SDS011;10349;48.666;8.948;2024-01-30T01:58:00;8.87;;;5.13;;
20379;SDS011;10349;48.666;8.948;2024-01-30T02:00:26;6.50;;;5.90;;
20379;SDS011;10349;48.666;8.948;2024-01-30T02:02:52;8.60;;;6.20;;
20379;SDS011;10349;48.666;8.948;2024-01-30T02:05:19;8.97;;;5.00;;
20379;SDS011;10349;48.666;8.948;2024-01-30T02:07:46;7.87;;;5.93;;
20379;SDS011;10349;48.666;8.948;2024-01-30T02:10:12;12.03;;;7.30;;
20379;SDS011;10349;48.666;8.948;2024-01-30T02:12:38;7.47;;;6.20;;
20379;SDS011;10349;48.666;8.948;2024-01-30T02:15:03;8.30;;;5.77;;
20379;SDS011;10349;48.666;8.948;2024-01-30T02:17:30;6.63;;;6.03;;
20379;SDS011;10349;48.666;8.948;2024-01-30T02:19:56;9.53;;;5.80;;
20379;SDS011;10349;48.666;8.948;2024-01-30T02:22:22;6.73;;;6.03;;
20379;SDS011;10349;48.666;8.948;2024-01-30T02:24:48;8.13;;;6.40;;
20379;SDS011;10349;48.666;8.948;2024-01-30T02:30:09;7.50;;;6.07;;
20379;SDS011;10349;48.666;8.948;2024-01-30T02:32:35;6.80;;;6.20;;
20379;SDS011;10349;48.666;8.948;2024-01-30T02:35:01;7.23;;;6.13;;
20379;SDS011;10349;48.666;8.948;2024-01-30T02:37:27;11.77;;;5.57;;
20379;SDS011;10349;48.666;8.948;2024-01-30T02:39:52;7.00;;;6.10;;
20379;SDS011;10349;48.666;8.948;2024-01-30T02:42:18;8.57;;;5.93;;
20379;SDS011;10349;48.666;8.948;2024-01-30T02:44:44;11.00;;;7.70;;
20379;SDS011;10349;48.666;8.948;2024-01-30T02:47:09;6.33;;;5.70;;
20379;SDS011;10349;48.666;8.948;2024-01-30T02:49:35;9.23;;;6.27;;
20379;SDS011;10349;48.666;8.948;2024-01-30T02:52:00;11.20;;;6.07;;
20379;SDS011;10349;48.666;8.948;2024-01-30T02:54:27;5.80;;;5.30;;
20379;SDS011;10349;48.666;8.948;2024-01-30T02:56:55;10.93;;;5.03;;
20379;SDS011;10349;48.666;8.948;2024-01-30T02:59:21;5.50;;;5.10;;
20379;SDS011;10349;48.666;8.948;2024-01-30T03:01:46;8.63;;;5.50;;
20379;SDS011;10349;48.666;8.948;2024-01-30T03:04:12;7.70;;;6.00;;
20379;SDS011;10349;48.666;8.948;2024-01-30T03:06:38;10.33;;;6.30;;
20379;SDS011;10349;48.666;8.948;2024-01-30T03:09:04;6.00;;;5.40;;
20379;SDS011;10349;48.666;8.948;2024-01-30T03:11:30;6.90;;;6.23;;
20379;SDS011;10349;48.666;8.948;2024-01-30T03:13:56;7.83;;;5.90;;
20379;SDS011;10349;48.666;8.948;2024-01-30T03:16:21;7.30;;;6.63;;
20379;SDS011;10349;48.666;8.948;2024-01-30T03:18:47;7.40;;;6.27;;
20379;SDS011;10349;48.666;8.948;2024-01-30T03:21:13;6.87;;;6.17;;
20379;SDS011;10349;48.666;8.948;2024-01-30T03:23:39;8.87;;;5.37;;
20379;SDS011;10349;48.666;8.948;2024-01-30T03:26:05;10.47;;;5.73;;
20379;SDS011;10349;48.666;8.948;2024-01-30T03:28:31;11.77;;;6.07;;
20379;SDS011;10349;48.666;8.948;2024-01-30T03:30:57;7.43;;;6.73;;
20379;SDS011;10349;48.666;8.948;2024-01-30T03:33:23;6.53;;;5.87;;
20379;SDS011;10349;48.666;8.948;2024-01-30T03:35:48;7.93;;;5.30;;
20379;SDS011;10349;48.666;8.948;2024-01-30T03:38:14;9.30;;;6.97;;
20379;SDS011;10349;48.666;8.948;2024-01-30T03:40:40;6.00;;;5.40;;
20379;SDS011;10349;48.666;8.948;2024-01-30T03:43:05;10.57;;;7.80;;
20379;SDS011;10349;48.666;8.948;2024-01-30T03:45:31;9.13;;;6.00;;
20379;SDS011;10349;48.666;8.948;2024-01-30T03:47:56;7.30;;;6.23;;
20379;SDS011;10349;48.666;8.948;2024-01-30T03:50:22;11.87;;;6.67;;
20379;SDS011;10349;48.666;8.948;2024-01-30T03:52:51;6.10;;;5.60;;
20379;SDS011;10349;48.666;8.948;2024-01-30T03:55:17;11.10;;;7.20;;
20379;SDS011;10349;48.666;8.948;2024-01-30T03:57:42;5.77;;;4.80;;
20379;SDS011;10349;48.666;8.948;2024-01-30T04:00:08;11.70;;;6.17;;
20379;SDS011;10349;48.666;8.948;2024-01-30T04:02:40;6.37;;;5.77;;
20379;SDS011;10349;48.666;8.948;2024-01-30T04:05:05;10.10;;;6.30;;
20379;SDS011;10349;48.666;8.948;2024-01-30T04:07:31;7.30;;;5.50;;
20379;SDS011;10349;48.666;8.948;2024-01-30T04:09:57;10.87;;;6.83;;
20379;SDS011;10349;48.666;8.948;2024-01-30T04:12:23;8.17;;;7.40;;
20379;SDS011;10349;48.666;8.948;2024-01-30T04:14:48;6.87;;;5.73;;
20379;SDS011;10349;48.666;8.948;2024-01-30T04:17:14;6.03;;;5.50;;
20379;SDS011;10349;48.666;8.948;2024-01-30T04:19:40;11.33;;;6.77;;
20379;SDS011;10349;48.666;8.948;2024-01-30T04:22:06;22.83;;;9.73;;
20379;SDS011;10349;48.666;8.948;2024-01-30T04:24:32;8.03;;;6.33;;
20379;SDS011;10349;48.666;8.948;2024-01-30T04:26:57;7.77;;;5.63;;
20379;SDS011;10349;48.666;8.948;2024-01-30T04:29:23;12.00;;;6.60;;
20379;SDS011;10349;48.666;8.948;2024-01-30T04:31:48;8.90;;;6.10;;
20379;SDS011;10349;48.666;8.948;2024-01-30T04:34:14;8.80;;;6.40;;
20379;SDS011;10349;48.666;8.948;2024-01-30T04:36:40;9.13;;;5.70;;
20379;SDS011;10349;48.666;8.948;2024-01-30T04:39:10;7.67;;;4.90;;
20379;SDS011;10349;48.666;8.948;2024-01-30T04:41:36;7.57;;;6.57;;
20379;SDS011;10349;48.666;8.948;2024-01-30T04:44:01;6.93;;;4.80;;
20379;SDS011;10349;48.666;8.948;2024-01-30T04:46:27;4.77;;;4.30;;
20379;SDS011;10349;48.666;8.948;2024-01-30T04:48:53;5.40;;;4.90;;
20379;SDS011;10349;48.666;8.948;2024-01-30T04:51:18;7.47;;;5.90;;
20379;SDS011;10349;48.666;8.948;2024-01-30T04:53:44;6.27;;;5.63;;
20379;SDS011;10349;48.666;8.948;2024-01-30T04:56:10;11.60;;;5.70;;
20379;SDS011;10349;48.666;8.948;2024-01-30T04:58:36;9.13;;;5.97;;
20379;SDS011;10349;48.666;8.948;2024-01-30T05:01:02;5.30;;;4.80;;
20379;SDS011;10349;48.666;8.948;2024-01-30T05:03:28;9.93;;;6.07;;
20379;SDS011;10349;48.666;8.948;2024-01-30T05:05:57;7.27;;;5.30;;
20379;SDS011;10349;48.666;8.948;2024-01-30T05:08:23;6.63;;;5.93;;
20379;SDS011;10349;48.666;8.948;2024-01-30T05:10:49;5.30;;;4.80;;
20379;SDS011;10349;48.666;8.948;2024-01-30T05:13:14;7.07;;;5.40;;
20379;SDS011;10349;48.666;8.948;2024-01-30T05:15:40;6.30;;;5.67;;
20379;SDS011;10349;48.666;8.948;2024-01-30T05:18:06;10.47;;;6.97;;
20379;SDS011;10349;48.666;8.948;2024-01-30T05:20:31;6.70;;;4.50;;
20379;SDS011;10349;48.666;8.948;2024-01-30T05:22:57;12.10;;;7.27;;
20379;SDS011;10349;48.666;8.948;2024-01-30T05:25:23;6.20;;;5.50;;
20379;SDS011;10349;48.666;8.948;2024-01-30T05:27:48;9.50;;;5.80;;
20379;SDS011;10349;48.666;8.948;2024-01-30T05:30:14;6.77;;;6.07;;
20379;SDS011;10349;48.666;8.948;2024-01-30T05:32:40;6.30;;;5.43;;
20379;SDS011;10349;48.666;8.948;2024-01-30T05:35:06;10.60;;;6.60;;
20379;SDS011;10349;48.666;8.948;2024-01-30T05:37:33;19.10;;;6.60;;
20379;SDS011;10349;48.666;8.948;2024-01-30T05:39:58;6.97;;;6.17;;
20379;SDS011;10349;48.666;8.948;2024-01-30T05:42:24;17.23;;;8.03;;
20379;SDS011;10349;48.666;8.948;2024-01-30T05:44:51;16.53;;;8.23;;
20379;SDS011;10349;48.666;8.948;2024-01-30T05:47:16;8.97;;;6.37;;
20379;SDS011;10349;48.666;8.948;2024-01-30T05:49:42;8.37;;;5.73;;
20379;SDS011;10349;48.666;8.948;2024-01-30T05:52:08;10.87;;;6.80;;
20379;SDS011;10349;48.666;8.948;2024-01-30T05:54:33;8.50;;;6.97;;
20379;SDS011;10349;48.666;8.948;2024-01-30T05:56:59;12.83;;;9.30;;
20379;SDS011;10349;48.666;8.948;2024-01-30T05:59:24;9.90;;;6.23;;
20379;SDS011;10349;48.666;8.948;2024-01-30T06:01:50;10.73;;;6.57;;
20379;SDS011;10349;48.666;8.948;2024-01-30T06:04:16;6.30;;;5.70;;
20379;SDS011;10349;48.666;8.948;2024-01-30T06:06:41;7.33;;;5.37;;
20379;SDS011;10349;48.666;8.948;2024-01-30T06:09:07;7.30;;;6.60;;
20379;SDS011;10349;48.666;8.948;2024-01-30T06:11:34;6.87;;;6.10;;
20379;SDS011;10349;48.666;8.948;2024-01-30T06:14:00;5.20;;;4.17;;
20379;SDS011;10349;48.666;8.948;2024-01-30T06:16:25;7.00;;;6.53;;
20379;SDS011;10349;48.666;8.948;2024-01-30T06:18:54;10.53;;;8.57;;
20379;SDS011;10349;48.666;8.948;2024-01-30T06:21:20;6.73;;;5.97;;
20379;SDS011;10349;48.666;8.948;2024-01-30T06:23:46;10.53;;;7.87;;
20379;SDS011;10349;48.666;8.948;2024-01-30T06:26:12;8.07;;;6.77;;
20379;SDS011;10349;48.666;8.948;2024-01-30T06:28:38;13.93;;;8.40;;
20379;SDS011;10349;48.666;8.948;2024-01-30T06:31:03;9.17;;;6.50;;
20379;SDS011;10349;48.666;8.948;2024-01-30T06:33:29;9.00;;;6.70;;
20379;SDS011;10349;48.666;8.948;2024-01-30T06:35:55;15.13;;;7.57;;
20379;SDS011;10349;48.666;8.948;2024-01-30T06:38:20;12.43;;;5.93;;
20379;SDS011;10349;48.666;8.948;2024-01-30T06:40:46;12.03;;;6.17;;
20379;SDS011;10349;48.666;8.948;2024-01-30T06:43:12;7.90;;;5.87;;
20379;SDS011;10349;48.666;8.948;2024-01-30T06:45:37;5.40;;;4.90;;
20379;SDS011;10349;48.666;8.948;2024-01-30T06:48:03;6.70;;;6.00;;
20379;SDS011;10349;48.666;8.948;2024-01-30T06:50:29;9.20;;;6.37;;
20379;SDS011;10349;48.666;8.948;2024-01-30T06:52:55;12.27;;;6.80;;
20379;SDS011;10349;48.666;8.948;2024-01-30T06:55:20;11.00;;;6.17;;
20379;SDS011;10349;48.666;8.948;2024-01-30T06:57:46;8.10;;;5.80;;
20379;SDS011;10349;48.666;8.948;2024-01-30T07:00:12;10.77;;;6.13;;
20379;SDS011;10349;48.666;8.948;2024-01-30T07:02:38;6.00;;;5.43;;
20379;SDS011;10349;48.666;8.948;2024-01-30T07:05:04;5.80;;;5.30;;
20379;SDS011;10349;48.666;8.948;2024-01-30T07:07:30;8.40;;;6.73;;
20379;SDS011;10349;48.666;8.948;2024-01-30T07:09:55;5.27;;;4.77;;
20379;SDS011;10349;48.666;8.948;2024-01-30T07:12:24;14.10;;;5.53;;
20379;SDS011;10349;48.666;8.948;2024-01-30T07:14:51;9.90;;;6.67;;
20379;SDS011;10349;48.666;8.948;2024-01-30T07:17:18;5.10;;;4.60;;
20379;SDS011;10349;48.666;8.948;2024-01-30T07:19:44;10.80;;;5.77;;
20379;SDS011;10349;48.666;8.948;2024-01-30T07:22:09;15.10;;;7.70;;
20379;SDS011;10349;48.666;8.948;2024-01-30T07:24:35;6.33;;;5.73;;
20379;SDS011;10349;48.666;8.948;2024-01-30T07:27:01;6.80;;;6.20;;
20379;SDS011;10349;48.666;8.948;2024-01-30T07:29:27;8.67;;;5.80;;
20379;SDS011;10349;48.666;8.948;2024-01-30T07:31:53;6.00;;;5.20;;
20379;SDS011;10349;48.666;8.948;2024-01-30T07:34:19;6.20;;;5.60;;
20379;SDS011;10349;48.666;8.948;2024-01-30T07:36:44;6.17;;;5.30;;
20379;SDS011;10349;48.666;8.948;2024-01-30T07:39:12;5.73;;;5.07;;
20379;SDS011;10349;48.666;8.948;2024-01-30T07:41:37;4.43;;;4.03;;
20379;SDS011;10349;48.666;8.948;2024-01-30T07:44:03;7.63;;;6.10;;
20379;SDS011;10349;48.666;8.948;2024-01-30T07:46:29;4.37;;;3.87;;
20379;SDS011;10349;48.666;8.948;2024-01-30T07:48:54;6.47;;;4.90;;
20379;SDS011;10349;48.666;8.948;2024-01-30T07:51:22;7.90;;;6.17;;
20379;SDS011;10349;48.666;8.948;2024-01-30T07:53:47;11.07;;;6.43;;
20379;SDS011;10349;48.666;8.948;2024-01-30T07:56:13;6.40;;;5.00;;
20379;SDS011;10349;48.666;8.948;2024-01-30T07:58:38;7.70;;;6.50;;
20379;SDS011;10349;48.666;8.948;2024-01-30T08:01:04;5.97;;;5.47;;
20379;SDS011;10349;48.666;8.948;2024-01-30T08:03:29;8.07;;;6.23;;
20379;SDS011;10349;48.666;8.948;2024-01-30T08:05:55;7.33;;;5.00;;
20379;SDS011;10349;48.666;8.948;2024-01-30T08:08:21;6.97;;;6.20;;
20379;SDS011;10349;48.666;8.948;2024-01-30T08:10:46;8.10;;;5.53;;
20379;SDS011;10349;48.666;8.948;2024-01-30T08:13:13;8.43;;;5.50;;
20379;SDS011;10349;48.666;8.948;2024-01-30T08:15:38;6.00;;;5.30;;
20379;SDS011;10349;48.666;8.948;2024-01-30T08:18:04;10.73;;;5.93;;
20379;SDS011;10349;48.666;8.948;2024-01-30T08:20:31;8.27;;;4.63;;
20379;SDS011;10349;48.666;8.948;2024-01-30T08:22:57;5.93;;;5.33;;
20379;SDS011;10349;48.666;8.948;2024-01-30T08:25:23;6.97;;;6.20;;
20379;SDS011;10349;48.666;8.948;2024-01-30T08:27:48;6.00;;;4.60;;
20379;SDS011;10349;48.666;8.948;2024-01-30T08:30:14;8.13;;;6.37;;
20379;SDS011;10349;48.666;8.948;2024-01-30T08:32:40;9.83;;;5.30;;
20379;SDS011;10349;48.666;8.948;2024-01-30T08:35:05;7.27;;;4.97;;
20379;SDS011;10349;48.666;8.948;2024-01-30T08:37:31;7.60;;;5.70;;
20379;SDS011;10349;48.666;8.948;2024-01-30T08:39:57;8.53;;;7.03;;
20379;SDS011;10349;48.666;8.948;2024-01-30T08:42:22;6.90;;;6.30;;
20379;SDS011;10349;48.666;8.948;2024-01-30T08:44:48;6.40;;;5.40;;
20379;SDS011;10349;48.666;8.948;2024-01-30T08:47:16;6.57;;;5.87;;
20379;SDS011;10349;48.666;8.948;2024-01-30T08:49:42;8.20;;;7.30;;
20379;SDS011;10349;48.666;8.948;2024-01-30T08:52:09;10.13;;;6.77;;
20379;SDS011;10349;48.666;8.948;2024-01-30T08:54:35;8.13;;;6.50;;
20379;SDS011;10349;48.666;8.948;2024-01-30T08:57:01;11.70;;;6.10;;
20379;SDS011;10349;48.666;8.948;2024-01-30T08:59:27;7.50;;;5.87;;
20379;SDS011;10349;48.666;8.948;2024-01-30T09:01:52;11.70;;;7.63;;
20379;SDS011;10349;48.666;8.948;2024-01-30T09:04:20;19.07;;;7.67;;
20379;SDS011;10349;48.666;8.948;2024-01-30T09:06:47;11.20;;;8.07;;
20379;SDS011;10349;48.666;8.948;2024-01-30T09:09:13;8.83;;;6.93;;
20379;SDS011;10349;48.666;8.948;2024-01-30T09:11:39;8.07;;;6.40;;
20379;SDS011;10349;48.666;8.948;2024-01-30T09:14:05;8.50;;;6.70;;
20379;SDS011;10349;48.666;8.948;2024-01-30T09:16:31;12.13;;;7.50;;
20379;SDS011;10349;48.666;8.948;2024-01-30T09:18:57;12.77;;;7.13;;
20379;SDS011;10349;48.666;8.948;2024-01-30T09:21:23;9.27;;;5.70;;
20379;SDS011;10349;48.666;8.948;2024-01-30T09:23:48;7.80;;;7.07;;
20379;SDS011;10349;48.666;8.948;2024-01-30T09:26:14;11.60;;;7.57;;
20379;SDS011;10349;48.666;8.948;2024-01-30T09:28:40;12.70;;;8.47;;
20379;SDS011;10349;48.666;8.948;2024-01-30T09:31:11;20.40;;;9.17;;
20379;SDS011;10349;48.666;8.948;2024-01-30T09:33:37;13.17;;;9.10;;
20379;SDS011;10349;48.666;8.948;2024-01-30T09:36:04;11.67;;;8.10;;
20379;SDS011;10349;48.666;8.948;2024-01-30T09:38:30;8.33;;;6.87;;
20379;SDS011;10349;48.666;8.948;2024-01-30T09:40:56;11.63;;;6.87;;
20379;SDS011;10349;48.666;8.948;2024-01-30T09:43:28;8.00;;;7.07;;
20379;SDS011;10349;48.666;8.948;2024-01-30T09:45:58;8.60;;;7.20;;
20379;SDS011;10349;48.666;8.948;2024-01-30T09:48:24;10.70;;;6.63;;
20379;SDS011;10349;48.666;8.948;2024-01-30T09:50:52;10.37;;;8.47;;
20379;SDS011;10349;48.666;8.948;2024-01-30T09:53:18;10.70;;;8.13;;
20379;SDS011;10349;48.666;8.948;2024-01-30T09:55:44;9.53;;;6.90;;
20379;SDS011;10349;48.666;8.948;2024-01-30T09:58:12;11.60;;;8.23;;
20379;SDS011;10349;48.666;8.948;2024-01-30T10:00:38;8.70;;;7.80;;
20379;SDS011;10349;48.666;8.948;2024-01-30T10:03:04;15.70;;;6.30;;
20379;SDS011;10349;48.666;8.948;2024-01-30T10:05:30;12.77;;;7.57;;
20379;SDS011;10349;48.666;8.948;2024-01-30T10:07:59;10.93;;;6.93;;
20379;SDS011;10349;48.666;8.948;2024-01-30T10:10:24;8.97;;;6.97;;
20379;SDS011;10349;48.666;8.948;2024-01-30T10:12:51;14.37;;;7.97;;
20379;SDS011;10349;48.666;8.948;2024-01-30T10:15:17;10.10;;;7.23;;
20379;SDS011;10349;48.666;8.948;2024-01-30T10:17:44;8.07;;;6.23;;
20379;SDS011;10349;48.666;8.948;2024-01-30T10:20:10;5.70;;;5.17;;
20379;SDS011;10349;48.666;8.948;2024-01-30T10:22:37;5.07;;;4.63;;
20379;SDS011;10349;48.666;8.948;2024-01-30T10:25:04;5.13;;;4.67;;
20379;SDS011;10349;48.666;8.948;2024-01-30T10:27:30;9.53;;;5.40;;
20379;SDS011;10349;48.666;8.948;2024-01-30T10:29:56;5.63;;;4.57;;
20379;SDS011;10349;48.666;8.948;2024-01-30T10:32:22;8.13;;;5.50;;
20379;SDS011;10349;48.666;8.948;2024-01-30T10:34:48;5.67;;;4.33;;
20379;SDS011;10349;48.666;8.948;2024-01-30T10:37:15;5.10;;;4.60;;
20379;SDS011;10349;48.666;8.948;2024-01-30T10:39:43;7.17;;;4.93;;
20379;SDS011;10349;48.666;8.948;2024-01-30T10:42:15;10.57;;;6.57;;
20379;SDS011;10349;48.666;8.948;2024-01-30T10:44:48;10.00;;;6.23;;
20379;SDS011;10349;48.666;8.948;2024-01-30T10:47:18;8.40;;;5.87;;
20379;SDS011;10349;48.666;8.948;2024-01-30T10:49:50;10.57;;;5.97;;
20379;SDS011;10349;48.666;8.948;2024-01-30T10:52:17;5.90;;;5.13;;
20379;SDS011;10349;48.666;8.948;2024-01-30T10:54:44;7.07;;;5.60;;
20379;SDS011;10349;48.666;8.948;2024-01-30T10:57:10;10.03;;;5.00;;
20379;SDS011;10349;48.666;8.948;2024-01-30T10:59:37;6.20;;;4.67;;
20379;SDS011;10349;48.666;8.948;2024-01-30T11:02:03;5.73;;;4.87;;
20379;SDS011;10349;48.666;8.948;2024-01-30T11:04:36;12.03;;;5.10;;
20379;SDS011;10349;48.666;8.948;2024-01-30T11:07:25;5.50;;;4.63;;
20379;SDS011;10349;48.666;8.948;2024-01-30T11:09:59;10.30;;;4.83;;
20379;SDS011;10349;48.666;8.948;2024-01-30T11:12:27;9.30;;;4.23;;
20379;SDS011;10349;48.666;8.948;2024-01-30T11:17:39;4.20;;;3.80;;
20379;SDS011;10349;48.666;8.948;2024-01-30T11:20:21;6.60;;;3.67;;
20379;SDS011;10349;48.666;8.948;2024-01-30T11:22:51;4.50;;;3.57;;
20379;SDS011;10349;48.666;8.948;2024-01-30T11:25:20;3.50;;;3.20;;
20379;SDS011;10349;48.666;8.948;2024-01-30T11:27:46;4.57;;;4.10;;
20379;SDS011;10349;48.666;8.948;2024-01-30T11:30:24;7.07;;;3.80;;
20379;SDS011;10349;48.666;8.948;2024-01-30T11:35:34;3.97;;;3.73;;
20379;SDS011;10349;48.666;8.948;2024-01-30T11:38:01;4.23;;;3.83;;
20379;SDS011;10349;48.666;8.948;2024-01-30T11:40:30;5.83;;;5.13;;
20379;SDS011;10349;48.666;8.948;2024-01-30T11:42:58;7.13;;;4.73;;
20379;SDS011;10349;48.666;8.948;2024-01-30T11:45:25;5.87;;;5.20;;
20379;SDS011;10349;48.666;8.948;2024-01-30T11:47:52;13.60;;;5.10;;
20379;SDS011;10349;48.666;8.948;2024-01-30T11:50:18;8.00;;;4.87;;
20379;SDS011;10349;48.666;8.948;2024-01-30T11:52:44;5.87;;;4.83;;
20379;SDS011;10349;48.666;8.948;2024-01-30T11:55:10;8.73;;;5.20;;
20379;SDS011;10349;48.666;8.948;2024-01-30T11:57:38;12.30;;;5.30;;
20379;SDS011;10349;48.666;8.948;2024-01-30T12:00:04;5.83;;;4.50;;
20379;SDS011;10349;48.666;8.948;2024-01-30T12:02:35;7.03;;;4.83;;
20379;SDS011;10349;48.666;8.948;2024-01-30T12:05:04;5.30;;;4.30;;
20379;SDS011;10349;48.666;8.948;2024-01-30T12:07:34;6.90;;;5.57;;
20379;SDS011;10349;48.666;8.948;2024-01-30T12:09:59;8.97;;;5.20;;
20379;SDS011;10349;48.666;8.948;2024-01-30T12:12:25;9.63;;;4.30;;
20379;SDS011;10349;48.666;8.948;2024-01-30T12:14:51;6.20;;;4.73;;
20379;SDS011;10349;48.666;8.948;2024-01-30T12:17:51;4.77;;;4.27;;
20379;SDS011;10349;48.666;8.948;2024-01-30T12:20:10;5.53;;;4.23;;
20379;SDS011;10349;48.666;8.948;2024-01-30T12:22:40;9.20;;;4.77;;
20379;SDS011;10349;48.666;8.948;2024-01-30T12:25:08;5.70;;;4.43;;
20379;SDS011;10349;48.666;8.948;2024-01-30T12:27:38;4.90;;;3.77;;
20379;SDS011;10349;48.666;8.948;2024-01-30T12:30:06;5.33;;;4.73;;
20379;SDS011;10349;48.666;8.948;2024-01-30T12:32:36;6.43;;;4.30;;
20379;SDS011;10349;48.666;8.948;2024-01-30T12:35:13;4.70;;;4.30;;
20379;SDS011;10349;48.666;8.948;2024-01-30T12:37:40;6.73;;;4.43;;
20379;SDS011;10349;48.666;8.948;2024-01-30T12:40:09;4.40;;;3.80;;
20379;SDS011;10349;48.666;8.948;2024-01-30T12:42:43;4.87;;;4.47;;
20379;SDS011;10349;48.666;8.948;2024-01-30T12:45:14;5.83;;;4.43;;
20379;SDS011;10349;48.666;8.948;2024-01-30T12:47:40;4.67;;;3.60;;
20379;SDS011;10349;48.666;8.948;2024-01-30T12:50:06;4.57;;;4.17;;
20379;SDS011;10349;48.666;8.948;2024-01-30T12:52:32;7.73;;;5.30;;
20379;SDS011;10349;48.666;8.948;2024-01-30T12:54:58;5.87;;;5.00;;
20379;SDS011;10349;48.666;8.948;2024-01-30T12:57:23;8.77;;;5.23;;
20379;SDS011;10349;48.666;8.948;2024-01-30T12:59:49;9.80;;;4.47;;
20379;SDS011;10349;48.666;8.948;2024-01-30T13:02:15;11.73;;;4.27;;
20379;SDS011;10349;48.666;8.948;2024-01-30T13:04:41;4.40;;;4.00;;
20379;SDS011;10349;48.666;8.948;2024-01-30T13:07:08;5.93;;;4.63;;
20379;SDS011;10349;48.666;8.948;2024-01-30T13:09:33;6.40;;;4.33;;
20379;SDS011;10349;48.666;8.948;2024-01-30T13:11:59;9.03;;;4.70;;
20379;SDS011;10349;48.666;8.948;2024-01-30T13:14:25;4.60;;;4.10;;
20379;SDS011;10349;48.666;8.948;2024-01-30T13:16:51;6.27;;;3.93;;
20379;SDS011;10349;48.666;8.948;2024-01-30T13:19:18;4.87;;;4.30;;
20379;SDS011;10349;48.666;8.948;2024-01-30T13:21:43;4.10;;;3.83;;
20379;SDS011;10349;48.666;8.948;2024-01-30T13:24:09;4.73;;;4.33;;
20379;SDS011;10349;48.666;8.948;2024-01-30T13:26:35;5.03;;;4.40;;
20379;SDS011;10349;48.666;8.948;2024-01-30T13:29:01;4.57;;;4.17;;
20379;SDS011;10349;48.666;8.948;2024-01-30T13:31:26;4.60;;;3.70;;
20379;SDS011;10349;48.666;8.948;2024-01-30T13:33:53;5.00;;;3.37;;
20379;SDS011;10349;48.666;8.948;2024-01-30T13:36:19;4.30;;;3.80;;
20379;SDS011;10349;48.666;8.948;2024-01-30T13:38:44;5.63;;;3.90;;
20379;SDS011;10349;48.666;8.948;2024-01-30T13:41:10;4.63;;;4.07;;
20379;SDS011;10349;48.666;8.948;2024-01-30T13:43:36;3.47;;;2.97;;
20379;SDS011;10349;48.666;8.948;2024-01-30T13:46:01;4.80;;;3.30;;
20379;SDS011;10349;48.666;8.948;2024-01-30T13:48:28;3.30;;;3.10;;
20379;SDS011;10349;48.666;8.948;2024-01-30T13:50:54;4.23;;;3.83;;
20379;SDS011;10349;48.666;8.948;2024-01-30T13:53:20;3.10;;;2.87;;
20379;SDS011;10349;48.666;8.948;2024-01-30T13:55:46;5.03;;;3.13;;
20379;SDS011;10349;48.666;8.948;2024-01-30T13:58:12;2.40;;;2.20;;
20379;SDS011;10349;48.666;8.948;2024-01-30T14:00:38;3.23;;;2.80;;
20379;SDS011;10349;48.666;8.948;2024-01-30T14:03:03;5.20;;;3.03;;
20379;SDS011;10349;48.666;8.948;2024-01-30T14:05:29;2.60;;;2.40;;
20379;SDS011;10349;48.666;8.948;2024-01-30T14:07:55;4.10;;;2.43;;
20379;SDS011;10349;48.666;8.948;2024-01-30T14:10:22;3.50;;;3.20;;
20379;SDS011;10349;48.666;8.948;2024-01-30T14:12:48;4.27;;;2.63;;
20379;SDS011;10349;48.666;8.948;2024-01-30T14:15:14;5.43;;;2.93;;
20379;SDS011;10349;48.666;8.948;2024-01-30T14:17:40;3.83;;;3.10;;
20379;SDS011;10349;48.666;8.948;2024-01-30T14:20:06;4.20;;;2.67;;
20379;SDS011;10349;48.666;8.948;2024-01-30T14:22:36;3.93;;;2.60;;
20379;SDS011;10349;48.666;8.948;2024-01-30T14:25:02;4.40;;;2.70;;
20379;SDS011;10349;48.666;8.948;2024-01-30T14:27:31;3.00;;;2.70;;
20379;SDS011;10349;48.666;8.948;2024-01-30T14:29:57;3.50;;;3.20;;
20379;SDS011;10349;48.666;8.948;2024-01-30T14:32:23;3.13;;;2.93;;
20379;SDS011;10349;48.666;8.948;2024-01-30T14:34:50;3.23;;;2.93;;
20379;SDS011;10349;48.666;8.948;2024-01-30T14:37:15;2.63;;;2.43;;
20379;SDS011;10349;48.666;8.948;2024-01-30T14:39:41;4.47;;;2.87;;
20379;SDS011;10349;48.666;8.948;2024-01-30T14:42:07;5.40;;;3.33;;
20379;SDS011;10349;48.666;8.948;2024-01-30T14:44:33;6.90;;;3.70;;
20379;SDS011;10349;48.666;8.948;2024-01-30T14:46:59;2.83;;;2.63;;
20379;SDS011;10349;48.666;8.948;2024-01-30T14:49:25;2.93;;;2.63;;